This is the latest recevied weather packets stored in our database for station/object KN1OBI-13. If no packets are shown the sender has not sent any weather packets the latest 10 day(s).
| Time | Temp. | Humidity | Pressure | Rain* | Wind** | Luminosity | Snow |
|---|---|---|---|---|---|---|---|
| 1777696102 | 8.33° C | 60% | 991 hPa | 0 mm | - | - | - |
| 1777651703 | 13.89° C | 43% | 989.8 hPa | 0 mm | - | - | - |
| 1777642104 | 10° C | 58% | 989.9 hPa | 0 mm | - | - | - |
| 1777634902 | 7.22° C | 74% | 989.8 hPa | 0 mm | - | - | - |
| 1777627102 | 5° C | 82% | 988.4 hPa | 0 mm | - | - | - |
| 1777526903 | 7.22° C | 85% | 989.7 hPa | 0 mm | - | - | - |
| 1777505903 | 11.11° C | 69% | 991.2 hPa | 0 mm | - | - | - |
| 1777373901 | 4.44° C | 82% | 1001.8 hPa | 0 mm | - | - | - |
| 1777372101 | 3.89° C | 82% | 1001.7 hPa | 0 mm | - | - | - |
| 1777370301 | 3.89° C | 80% | 1001.7 hPa | 0 mm | - | - | - |
| 1777369701 | 3.89° C | 80% | 1001.7 hPa | 0 mm | - | - | - |
| 1777367301 | 3.89° C | 79% | 1002.1 hPa | 0 mm | - | - | - |
| 1777365501 | 4.44° C | 78% | 1001.8 hPa | 0 mm | - | - | - |
| 1777364902 | 4.44° C | 78% | 1001.5 hPa | 0 mm | - | - | - |
| 1777361301 | 5° C | 76% | 1001.3 hPa | 0 mm | - | - | - |
| 1777360701 | 5° C | 75% | 1001.4 hPa | 0 mm | - | - | - |
| 1777360101 | 5° C | 74% | 1001.7 hPa | 0 mm | - | - | - |
| 1777359501 | 5.56° C | 74% | 1001.7 hPa | 0 mm | - | - | - |
| 1777358901 | 5.56° C | 73% | 1001.3 hPa | 0 mm | - | - | - |
| 1777358301 | 5.56° C | 73% | 1001.7 hPa | 0 mm | - | - | - |
| 1777357102 | 6.11° C | 72% | 1001.6 hPa | 0 mm | - | - | - |
| 1777356501 | 6.11° C | 72% | 1002.1 hPa | 0 mm | - | - | - |
| 1777355901 | 6.11° C | 71% | 1001.8 hPa | 0 mm | - | - | - |
| 1777353502 | 6.67° C | 69% | 1002.4 hPa | 0 mm | - | - | - |
| 1777352901 | 6.67° C | 68% | 1002.7 hPa | 0 mm | - | - | - |
* Rain latest hour (hover to see other rain measurements)
** Current wind speed in m/s (hover to see current wind gust speed)